Time;durP1;ratioP1;P1;durP2;ratioP2;P2;SDS_P1;SDS_P2;PMS_P1;PMS_P2;Temp;Humidity;BMP_temperature;BMP_pressure;BME280_temperature;BME280_humidity;BME280_pressure;Samples;Min_cycle;Max_cycle;Signal;HPM_P1;HPM_P2
2022/07/29 00:00:11;;;;;;;2.15;1.20;;;;;;;23.91;56.20;99753.13;4860597;29;20090;-81
2022/07/29 00:02:36;;;;;;;2.65;1.48;;;;;;;23.82;56.30;99729.50;4850840;29;20041;-81
2022/07/29 00:05:03;;;;;;;1.35;1.02;;;;;;;23.86;56.61;99750.75;4851482;29;20029;-82
2022/07/29 00:07:29;;;;;;;3.08;1.58;;;;;;;23.78;56.78;99755.78;4860777;29;20076;-83
2022/07/29 00:09:54;;;;;;;2.60;1.63;;;;;;;23.92;55.88;99746.78;4860545;29;20077;-81
2022/07/29 00:12:22;;;;;;;1.75;1.13;;;;;;;23.89;55.94;99738.91;4859983;29;20197;-81
2022/07/29 00:14:48;;;;;;;1.83;1.20;;;;;;;23.73;55.97;99717.56;4859652;29;20029;-82
2022/07/29 00:17:13;;;;;;;1.92;1.23;;;;;;;23.85;55.71;99730.19;4860442;29;20116;-81
2022/07/29 00:19:39;;;;;;;2.45;1.48;;;;;;;24.01;55.63;99738.06;4860453;29;20042;-81
2022/07/29 00:22:04;;;;;;;1.13;0.80;;;;;;;23.83;56.09;99715.06;4860152;29;20040;-81
2022/07/29 00:24:30;;;;;;;2.20;1.58;;;;;;;23.90;56.04;99733.41;4859759;29;20053;-81
2022/07/29 00:26:55;;;;;;;2.97;1.88;;;;;;;24.01;55.80;99753.38;4860061;29;20424;-82
2022/07/29 00:29:21;;;;;;;2.17;1.45;;;;;;;23.92;55.84;99727.94;4859872;29;20033;-82
2022/07/29 00:31:46;;;;;;;2.10;1.63;;;;;;;23.84;56.75;99754.50;4859989;29;20029;-83
2022/07/29 00:36:57;;;;;;;1.90;1.23;;;;;;;23.83;56.56;99728.53;4821904;29;20087;-82
2022/07/29 00:39:23;;;;;;;2.80;1.73;;;;;;;23.77;56.41;99738.78;4841481;29;20042;-82
2022/07/29 00:41:49;;;;;;;2.35;1.50;;;;;;;23.66;57.27;99738.63;4849143;29;20497;-81
2022/07/29 00:44:15;;;;;;;2.15;1.58;;;;;;;23.69;57.66;99727.66;4860115;29;20037;-81
2022/07/29 00:46:40;;;;;;;2.00;1.48;;;;;;;23.84;57.13;99743.75;4859695;29;20060;-82
2022/07/29 00:49:07;;;;;;;2.25;1.73;;;;;;;23.68;57.16;99700.81;4859237;29;20065;-82
2022/07/29 00:51:36;;;;;;;3.85;2.13;;;;;;;23.92;56.94;99741.38;4859679;29;20073;-81
2022/07/29 00:54:02;;;;;;;2.10;1.50;;;;;;;23.70;57.54;99731.22;4859491;29;20049;-81
2022/07/29 00:56:31;;;;;;;2.85;2.10;;;;;;;23.66;57.58;99733.25;4859433;29;20497;-81
2022/07/29 00:58:57;;;;;;;3.90;2.42;;;;;;;23.50;57.95;99717.28;4859442;29;20100;-81
2022/07/29 01:01:23;;;;;;;3.08;1.98;;;;;;;23.60;57.96;99736.34;4859578;29;20053;-80
2022/07/29 01:03:48;;;;;;;4.47;1.90;;;;;;;23.31;58.40;99704.25;4859204;29;20076;-82
2022/07/29 01:06:16;;;;;;;2.35;1.73;;;;;;;23.30;58.84;99710.56;4859415;29;20125;-80
2022/07/29 01:08:42;;;;;;;3.50;1.90;;;;;;;23.32;59.06;99722.09;4859791;29;20065;-81
2022/07/29 01:11:09;;;;;;;2.10;1.60;;;;;;;23.41;58.82;99731.38;4859025;29;20458;-81
2022/07/29 01:13:34;;;;;;;2.47;1.73;;;;;;;23.52;58.75;99736.03;4858857;29;20040;-81
2022/07/29 01:16:12;;;;;;;4.65;2.92;;;;;;;23.33;59.28;99734.59;4859317;29;20042;-82
2022/07/29 01:18:44;;;;;;;3.40;2.00;;;;;;;23.21;59.02;99722.81;4859750;29;20038;-82
2022/07/29 01:21:30;;;;;;;3.83;1.60;;;;;;;23.10;59.78;99740.66;4859240;29;20070;-83
2022/07/29 01:24:28;;;;;;;2.35;1.65;;;;;;;23.27;59.69;99748.47;4859472;29;20033;-82
2022/07/29 01:27:09;;;;;;;3.95;2.08;;;;;;;23.14;59.99;99743.03;4859379;29;20124;-82
2022/07/29 01:29:56;;;;;;;4.22;2.10;;;;;;;22.96;60.02;99698.50;4858599;29;20041;-82
2022/07/29 01:32:27;;;;;;;3.53;2.30;;;;;;;23.12;59.84;99715.34;4858965;29;20036;-82
2022/07/29 01:35:01;;;;;;;3.15;2.28;;;;;;;23.14;59.74;99731.41;4859212;29;20128;-82
2022/07/29 01:37:36;;;;;;;2.78;1.40;;;;;;;23.10;59.84;99721.81;4858999;29;20116;-83
2022/07/29 01:40:04;;;;;;;3.15;2.08;;;;;;;22.94;59.91;99682.47;4858994;29;20488;-85
2022/07/29 01:42:41;;;;;;;2.72;1.88;;;;;;;23.24;59.75;99719.06;4858849;29;20104;-81
2022/07/29 01:45:16;;;;;;;3.65;2.22;;;;;;;23.04;60.30;99718.53;4859085;29;20112;-81
2022/07/29 01:47:52;;;;;;;3.50;1.90;;;;;;;23.10;60.36;99720.00;4858778;29;20037;-81
2022/07/29 01:50:23;;;;;;;9.65;3.15;;;;;;;23.18;60.40;99730.25;4859023;29;20120;-81
2022/07/29 01:53:02;;;;;;;4.10;2.65;;;;;;;23.22;60.41;99721.84;4858245;29;20040;-81
2022/07/29 01:55:33;;;;;;;3.60;2.20;;;;;;;23.08;60.56;99719.22;4858367;29;20030;-80
2022/07/29 01:58:00;;;;;;;3.55;2.33;;;;;;;23.04;60.67;99729.28;4858492;29;20041;-81
2022/07/29 02:00:29;;;;;;;4.15;2.15;;;;;;;22.67;61.58;99717.41;4858509;29;20116;-82
2022/07/29 02:02:58;;;;;;;11.60;4.15;;;;;;;22.75;61.54;99712.38;4858596;29;20037;-81
2022/07/29 02:05:27;;;;;;;7.40;3.20;;;;;;;22.94;61.53;99730.88;4858466;29;20094;-81
2022/07/29 02:07:53;;;;;;;4.85;3.25;;;;;;;22.82;61.26;99708.34;4858941;29;20057;-80
2022/07/29 02:10:23;;;;;;;5.28;3.47;;;;;;;22.78;61.42;99700.56;4858920;29;20423;-80
2022/07/29 02:12:50;;;;;;;4.15;2.42;;;;;;;22.82;61.36;99704.78;4858213;29;20133;-82
2022/07/29 02:15:16;;;;;;;6.18;2.28;;;;;;;22.93;61.26;99714.84;4858736;29;20057;-82
2022/07/29 02:17:48;;;;;;;4.28;2.88;;;;;;;23.02;61.12;99730.38;4858133;29;20107;-82
2022/07/29 02:20:16;;;;;;;5.03;3.10;;;;;;;23.03;60.82;99724.00;4858078;29;20045;-82
2022/07/29 02:22:44;;;;;;;4.40;2.75;;;;;;;22.89;60.82;99687.28;4840226;29;20466;-81
2022/07/29 02:25:11;;;;;;;5.35;3.00;;;;;;;23.01;61.02;99734.88;4850744;29;20045;-82
2022/07/29 02:27:39;;;;;;;4.78;3.10;;;;;;;22.95;60.75;99712.91;4858002;29;20038;-81
2022/07/29 02:30:07;;;;;;;4.75;3.42;;;;;;;22.93;61.09;99723.75;4857892;29;20034;-81
2022/07/29 02:32:35;;;;;;;2.83;2.03;;;;;;;22.86;61.46;99700.91;4858306;29;20104;-81
2022/07/29 02:35:02;;;;;;;4.22;2.80;;;;;;;22.94;61.48;99728.19;4858771;29;20042;-81
2022/07/29 02:37:29;;;;;;;4.85;2.75;;;;;;;22.73;61.92;99703.56;4858337;29;20094;-82
2022/07/29 02:39:56;;;;;;;5.05;2.55;;;;;;;22.34;63.85;99715.94;4858119;29;20042;-81
2022/07/29 02:42:23;;;;;;;8.35;4.57;;;;;;;22.58;63.09;99718.84;4858112;29;20101;-82
2022/07/29 02:44:50;;;;;;;5.40;3.45;;;;;;;22.61;63.06;99718.66;4858194;29;20074;-81
2022/07/29 02:47:35;;;;;;;6.43;4.13;;;;;;;22.58;63.10;99704.56;4858565;29;20078;-81
2022/07/29 02:50:08;;;;;;;5.90;3.28;;;;;;;22.65;62.84;99705.91;4858048;29;20033;-81
2022/07/29 02:52:33;;;;;;;6.30;3.10;;;;;;;22.66;63.24;99724.63;4858041;29;20029;-80
2022/07/29 02:55:22;;;;;;;5.88;3.75;;;;;;;22.71;63.28;99721.63;4858215;29;20031;-81
2022/07/29 02:57:57;;;;;;;5.80;3.50;;;;;;;22.59;63.11;99699.09;4858182;29;20044;-80
2022/07/29 03:00:36;;;;;;;8.30;3.53;;;;;;;22.53;62.72;99672.59;4855368;29;20056;-81
2022/07/29 03:03:07;;;;;;;4.43;2.92;;;;;;;22.67;63.21;99720.09;4839965;29;20129;-82
2022/07/29 03:05:32;;;;;;;4.05;2.28;;;;;;;22.63;63.09;99703.31;4849663;29;20613;-81
2022/07/29 03:08:03;;;;;;;13.82;3.42;;;;;;;22.69;63.10;99731.59;4861886;29;20131;-82
2022/07/29 03:10:30;;;;;;;4.38;2.42;;;;;;;22.61;63.29;99729.41;4854357;29;20037;-83
2022/07/29 03:12:57;;;;;;;4.75;2.97;;;;;;;22.49;63.44;99719.44;4861431;29;20033;-82
2022/07/29 03:15:23;;;;;;;4.65;3.22;;;;;;;22.50;63.71;99735.47;4861605;29;20030;-82
2022/07/29 03:17:49;;;;;;;7.47;5.22;;;;;;;22.42;63.10;99716.28;4862041;29;20382;-81
2022/07/29 03:20:16;;;;;;;6.55;3.38;;;;;;;22.68;62.88;99735.28;4860891;29;20041;-81
2022/07/29 03:22:43;;;;;;;5.85;3.55;;;;;;;22.56;63.01;99728.84;4861440;29;20041;-82
2022/07/29 03:25:13;;;;;;;5.95;4.05;;;;;;;22.41;63.08;99725.31;4861198;29;20471;-83
2022/07/29 03:27:38;;;;;;;5.95;3.28;;;;;;;22.44;63.56;99748.44;4860701;29;20042;-82
2022/07/29 03:30:05;;;;;;;4.57;2.90;;;;;;;22.38;63.73;99736.25;4861115;29;20038;-82
2022/07/29 03:32:30;;;;;;;7.28;3.45;;;;;;;22.53;63.32;99750.56;4860954;29;20042;-82
2022/07/29 03:34:56;;;;;;;5.65;3.53;;;;;;;22.44;63.31;99729.63;4861444;29;20444;-82
2022/07/29 03:37:21;;;;;;;5.40;3.83;;;;;;;22.52;63.06;99730.00;4861379;29;20089;-82
2022/07/29 03:39:48;;;;;;;5.82;3.30;;;;;;;22.58;63.05;99752.94;4860685;29;20041;-81
2022/07/29 03:42:17;;;;;;;5.55;3.53;;;;;;;22.61;63.06;99756.28;4860959;29;20120;-82
2022/07/29 03:44:47;;;;;;;5.45;3.15;;;;;;;22.38;63.17;99740.78;4860945;29;20116;-81
2022/07/29 03:47:14;;;;;;;5.13;3.90;;;;;;;22.49;63.38;99755.28;4860814;29;20533;-82
2022/07/29 03:49:42;;;;;;;5.43;3.35;;;;;;;22.50;63.07;99743.53;4860831;29;20497;-83
2022/07/29 03:52:08;;;;;;;10.10;3.50;;;;;;;22.60;62.41;99740.25;4860845;29;20097;-82
2022/07/29 03:54:34;;;;;;;5.90;3.47;;;;;;;22.62;62.67;99735.66;4860828;29;20052;-82
2022/07/29 03:57:01;;;;;;;14.88;4.35;;;;;;;22.82;61.87;99758.56;4859974;29;20038;-83
2022/07/29 03:59:27;;;;;;;8.65;3.70;;;;;;;22.71;61.80;99760.13;4859945;29;20089;-82
2022/07/29 04:01:56;;;;;;;6.25;3.92;;;;;;;22.42;62.78;99767.34;4860546;29;20033;-82
2022/07/29 04:04:21;;;;;;;5.55;3.28;;;;;;;22.39;62.00;99739.81;4860885;29;20045;-84
2022/07/29 04:06:47;;;;;;;5.05;3.35;;;;;;;22.58;61.67;99751.09;4860557;29;20033;-82
2022/07/29 04:09:13;;;;;;;20.90;3.90;;;;;;;22.54;61.52;99754.97;4860417;29;20373;-82
2022/07/29 04:11:40;;;;;;;5.65;3.50;;;;;;;22.86;61.02;99760.09;4845817;29;20561;-82
2022/07/29 04:14:05;;;;;;;8.02;4.53;;;;;;;22.68;61.34;99754.94;4860099;29;20097;-81
2022/07/29 04:16:31;;;;;;;10.60;4.90;;;;;;;22.96;61.33;99771.97;4859213;29;20037;-82
2022/07/29 04:18:57;;;;;;;5.20;2.95;;;;;;;23.10;60.70;99779.19;4860522;29;20038;-81
2022/07/29 04:21:22;;;;;;;17.88;6.40;;;;;;;22.97;60.67;99778.22;4854997;29;20037;-81
2022/07/29 04:23:51;;;;;;;14.07;5.28;;;;;;;22.86;60.80;99768.16;4842062;29;20053;-82
2022/07/29 04:26:17;;;;;;;9.88;4.43;;;;;;;23.16;60.38;99780.59;4843239;29;20037;-81
2022/07/29 04:28:43;;;;;;;19.35;4.80;;;;;;;23.04;59.65;99723.91;4860075;29;20037;-82
2022/07/29 04:31:10;;;;;;;7.22;3.38;;;;;;;23.46;59.09;99761.53;4857797;29;20520;-85
2022/07/29 04:33:35;;;;;;;8.60;3.88;;;;;;;23.47;59.05;99770.50;4860364;29;20054;-82
2022/07/29 04:36:00;;;;;;;4.57;3.50;;;;;;;23.34;59.94;99781.19;4859958;29;20548;-83
2022/07/29 04:38:26;;;;;;;6.43;4.13;;;;;;;23.19;60.05;99757.03;4842511;29;20061;-84
2022/07/29 04:40:51;;;;;;;8.20;3.70;;;;;;;23.21;59.94;99735.41;4841741;29;20037;-83
2022/07/29 04:43:17;;;;;;;5.82;3.67;;;;;;;23.91;58.49;99783.63;4842150;29;20037;-82
2022/07/29 04:45:43;;;;;;;8.90;5.18;;;;;;;24.03;57.81;99759.50;4863873;29;20033;-83
2022/07/29 04:48:08;;;;;;;10.85;4.97;;;;;;;24.13;56.23;99784.84;4844378;29;20069;-82
2022/07/29 04:50:34;;;;;;;4.65;3.17;;;;;;;24.02;56.98;99782.88;4860812;29;20073;-82
2022/07/29 04:53:00;;;;;;;7.40;4.25;;;;;;;24.22;56.01;99772.53;4860493;29;20065;-82
2022/07/29 04:55:26;;;;;;;7.60;4.93;;;;;;;24.35;56.10;99775.22;4859891;29;20040;-83
2022/07/29 04:57:51;;;;;;;6.00;3.55;;;;;;;24.73;55.37;99798.59;4860277;29;20040;-82
2022/07/29 05:00:17;;;;;;;6.38;3.78;;;;;;;24.57;54.65;99775.44;4859995;29;20493;-83
2022/07/29 05:02:42;;;;;;;7.00;4.57;;;;;;;24.78;54.65;99802.69;4858182;29;20034;-82
2022/07/29 05:05:08;;;;;;;4.97;3.25;;;;;;;24.48;55.54;99770.66;4851761;29;20129;-82
2022/07/29 05:07:34;;;;;;;6.88;4.13;;;;;;;24.98;55.84;99797.69;4859408;29;20041;-83
2022/07/29 05:09:59;;;;;;;6.72;3.40;;;;;;;25.26;54.98;99788.41;4874473;29;20029;-86
2022/07/29 05:12:25;;;;;;;6.38;3.55;;;;;;;25.69;53.88;99800.53;4859014;29;20548;-84
2022/07/29 05:14:51;;;;;;;5.88;4.00;;;;;;;26.00;52.53;99796.34;4860141;29;20033;-83
2022/07/29 05:17:18;;;;;;;7.43;3.55;;;;;;;26.24;52.35;99798.97;4860144;29;20037;-83
2022/07/29 05:19:44;;;;;;;5.50;3.65;;;;;;;26.35;51.81;99799.94;4860167;29;20041;-83
2022/07/29 05:22:09;;;;;;;6.60;3.53;;;;;;;26.55;51.04;99801.91;4860155;29;20040;-83
2022/07/29 05:24:35;;;;;;;5.95;3.58;;;;;;;26.55;50.68;99787.53;4859820;29;20124;-83
2022/07/29 05:27:00;;;;;;;5.55;3.97;;;;;;;26.24;51.80;99792.69;4859490;29;20397;-83
2022/07/29 05:29:26;;;;;;;6.03;4.20;;;;;;;26.38;51.03;99797.84;4859557;29;20037;-83
2022/07/29 05:31:52;;;;;;;5.13;3.03;;;;;;;26.73;50.50;99787.94;4859306;29;20128;-82
2022/07/29 05:34:18;;;;;;;5.07;3.85;;;;;;;26.54;50.09;99775.88;4859117;29;20126;-83
2022/07/29 05:36:44;;;;;;;5.70;3.63;;;;;;;27.06;50.32;99797.84;4869745;29;20050;-81
2022/07/29 05:39:10;;;;;;;6.65;4.00;;;;;;;27.20;49.65;99802.09;4856500;29;20064;-82
2022/07/29 05:41:36;;;;;;;8.88;4.10;;;;;;;27.46;49.42;99809.94;4858534;29;20453;-82
2022/07/29 05:44:01;;;;;;;7.78;4.32;;;;;;;27.61;48.86;99814.06;4858235;29;20029;-82
2022/07/29 05:46:27;;;;;;;6.38;4.22;;;;;;;27.32;50.21;99814.66;4858472;29;20033;-82
2022/07/29 05:48:53;;;;;;;6.93;4.93;;;;;;;27.69;48.04;99808.84;4858234;29;20029;-82
2022/07/29 05:51:18;;;;;;;5.80;4.18;;;;;;;27.71;49.35;99816.84;4858135;29;20060;-81
2022/07/29 05:53:44;;;;;;;6.45;4.13;;;;;;;27.93;47.13;99782.50;4857849;29;20117;-81
2022/07/29 05:56:10;;;;;;;6.97;4.68;;;;;;;28.17;47.64;99815.63;4858449;29;20503;-84
2022/07/29 05:58:36;;;;;;;7.88;4.50;;;;;;;28.42;46.91;99808.06;4858532;29;20037;-82
2022/07/29 06:01:02;;;;;;;5.95;3.70;;;;;;;28.78;46.00;99807.69;4858264;29;20030;-82
2022/07/29 06:03:28;;;;;;;7.25;4.47;;;;;;;28.97;46.57;99817.75;4858120;29;20041;-81
2022/07/29 06:05:53;;;;;;;6.13;4.43;;;;;;;29.26;45.66;99815.16;4857696;29;20064;-82
2022/07/29 06:08:19;;;;;;;10.07;5.68;;;;;;;28.95;46.34;99831.47;4857677;29;20148;-82
2022/07/29 06:10:45;;;;;;;5.75;3.78;;;;;;;28.68;45.74;99808.50;4856791;29;20487;-82
2022/07/29 06:13:12;;;;;;;6.35;4.47;;;;;;;28.75;46.02;99819.69;4857556;29;20128;-82
2022/07/29 06:15:38;;;;;;;5.90;4.10;;;;;;;29.39;44.79;99817.59;4858427;29;20034;-81
2022/07/29 06:18:03;;;;;;;6.00;3.85;;;;;;;28.26;47.40;99788.75;4857973;29;20086;-81
2022/07/29 06:20:30;;;;;;;7.55;4.85;;;;;;;28.70;46.18;99792.09;4858101;29;20471;-82
2022/07/29 06:22:56;;;;;;;6.82;3.95;;;;;;;29.18;46.10;99807.66;4858148;29;20057;-81
2022/07/29 06:25:22;;;;;;;6.07;4.13;;;;;;;29.59;44.81;99815.75;4857690;29;20080;-81
2022/07/29 06:27:48;;;;;;;8.55;4.78;;;;;;;29.29;45.30;99785.84;4857610;29;20056;-82
2022/07/29 06:30:13;;;;;;;6.05;4.45;;;;;;;29.35;46.03;99795.28;4856621;29;20049;-82
2022/07/29 06:32:39;;;;;;;6.55;3.72;;;;;;;29.50;46.12;99792.97;4856831;29;20121;-82
2022/07/29 06:35:05;;;;;;;5.18;3.35;;;;;;;29.62;43.88;99815.44;4816596;29;1234072;-82
2022/07/29 06:37:31;;;;;;;5.43;3.65;;;;;;;29.57;44.16;99799.56;4858811;29;20050;-82
2022/07/29 06:42:44;;;;;;;5.73;3.67;;;;;;;30.36;43.07;99803.91;4862416;29;20048;-81
2022/07/29 06:45:11;;;;;;;4.78;3.95;;;;;;;30.13;41.49;99789.81;4862553;29;20353;-81
2022/07/29 06:47:36;;;;;;;6.03;4.15;;;;;;;30.72;40.58;99773.28;4862110;29;20034;-81
2022/07/29 06:50:02;;;;;;;5.85;3.15;;;;;;;31.33;39.08;99782.69;4862136;29;20033;-82
2022/07/29 06:52:27;;;;;;;7.57;4.15;;;;;;;31.44;39.10;99792.50;4861427;29;20057;-84
2022/07/29 06:54:54;;;;;;;5.07;3.80;;;;;;;31.41;38.09;99777.31;4861211;29;20112;-86
2022/07/29 06:57:20;;;;;;;4.22;2.97;;;;;;;31.84;38.46;99793.03;4861240;29;20638;-83
2022/07/29 06:59:46;;;;;;;6.57;3.75;;;;;;;32.26;37.41;99793.19;4861149;29;20155;-83
2022/07/29 07:02:11;;;;;;;6.43;4.38;;;;;;;32.54;37.21;99779.38;4861830;29;20045;-81
2022/07/29 07:04:37;;;;;;;4.88;3.80;;;;;;;32.58;35.95;99761.66;4861860;29;20081;-82
2022/07/29 07:07:02;;;;;;;7.00;4.47;;;;;;;32.88;36.74;99772.19;4861596;29;20143;-82
2022/07/29 07:09:28;;;;;;;4.90;3.65;;;;;;;32.91;36.18;99772.72;4861700;29;20033;-83
2022/07/29 07:11:53;;;;;;;4.75;3.55;;;;;;;32.58;36.04;99758.91;4861442;29;20424;-82
2022/07/29 07:14:19;;;;;;;7.72;4.40;;;;;;;33.32;35.62;99785.66;4861131;29;20029;-83
2022/07/29 07:16:44;;;;;;;4.32;3.45;;;;;;;33.55;34.47;99794.03;4860796;29;20037;-89
2022/07/29 07:19:10;;;;;;;5.22;3.67;;;;;;;33.88;33.44;99772.22;4860972;29;20079;-83
2022/07/29 07:21:35;;;;;;;5.30;3.58;;;;;;;34.27;32.03;99762.44;4860454;29;20037;-86
2022/07/29 07:24:01;;;;;;;8.52;4.45;;;;;;;34.11;31.60;99757.78;4875198;29;20061;-83
2022/07/29 07:26:26;;;;;;;3.50;2.42;;;;;;;33.90;32.08;99789.31;4859825;29;20081;-82
2022/07/29 07:28:52;;;;;;;4.72;2.80;;;;;;;33.75;32.76;99780.06;4860069;29;20034;-82
2022/07/29 07:31:18;;;;;;;3.92;2.75;;;;;;;33.55;32.45;99753.91;4859906;29;20033;-82
2022/07/29 07:33:43;;;;;;;4.32;3.08;;;;;;;33.95;32.92;99772.38;4860884;29;20167;-84
2022/07/29 07:36:09;;;;;;;3.00;1.85;;;;;;;33.76;32.80;99754.44;4861095;29;20049;-83
2022/07/29 07:38:35;;;;;;;3.45;2.55;;;;;;;33.97;32.04;99760.25;4860904;29;20504;-84
2022/07/29 07:41:01;;;;;;;3.88;2.67;;;;;;;34.25;31.28;99781.75;4860136;29;20043;-83
2022/07/29 07:43:26;;;;;;;6.57;3.15;;;;;;;33.70;31.65;99770.47;4860760;29;20041;-83
2022/07/29 07:45:52;;;;;;;4.63;2.47;;;;;;;33.77;31.41;99762.47;4860832;29;20489;-84
2022/07/29 07:48:18;;;;;;;5.45;2.40;;;;;;;33.62;31.94;99754.06;4860514;29;20033;-83
2022/07/29 07:50:44;;;;;;;3.78;2.42;;;;;;;33.71;32.17;99736.66;4860245;29;20473;-83
2022/07/29 07:53:09;;;;;;;3.95;2.08;;;;;;;34.21;29.56;99767.53;4860174;29;20025;-84
2022/07/29 07:55:41;;;;;;;3.83;2.10;;;;;;;34.20;30.06;99767.69;4860683;29;20045;-82
2022/07/29 07:58:06;;;;;;;3.00;1.98;;;;;;;34.04;29.85;99743.97;4860986;29;20424;-82
2022/07/29 08:00:32;;;;;;;2.95;1.80;;;;;;;34.56;29.05;99750.88;4860793;29;20093;-82
2022/07/29 08:02:58;;;;;;;3.60;2.22;;;;;;;34.20;30.06;99749.41;4860967;29;20041;-83
2022/07/29 08:05:23;;;;;;;4.15;2.38;;;;;;;34.28;30.33;99756.78;4860898;29;20025;-83
2022/07/29 08:07:50;;;;;;;2.67;1.60;;;;;;;34.51;27.20;99734.09;4860700;29;20033;-83
2022/07/29 08:10:51;;;;;;;2.45;1.20;;;;;;;34.38;27.68;99765.63;4861367;29;20552;-83
2022/07/29 08:13:04;;;;;;;1.73;1.27;;;;;;;34.40;28.49;99740.81;4859128;29;20033;-84
2022/07/29 08:15:30;;;;;;;2.45;1.60;;;;;;;34.75;28.77;99755.94;4859946;29;20072;-84
2022/07/29 08:17:55;;;;;;;2.45;1.55;;;;;;;35.40;26.40;99744.78;4859733;29;20029;-84
2022/07/29 08:20:21;;;;;;;2.85;1.80;;;;;;;35.41;25.35;99758.31;4859386;29;20045;-84
2022/07/29 08:22:46;;;;;;;2.47;1.35;;;;;;;35.35;25.70;99756.28;4860208;29;20760;-83
2022/07/29 08:25:12;;;;;;;3.38;1.90;;;;;;;35.05;26.04;99750.66;4857184;29;20014;-83
2022/07/29 08:27:37;;;;;;;4.82;1.52;;;;;;;35.00;25.61;99728.41;4859379;29;20490;-83
2022/07/29 08:30:03;;;;;;;1.70;1.17;;;;;;;35.23;24.87;99739.38;4859910;29;20065;-81
2022/07/29 08:32:29;;;;;;;1.98;1.38;;;;;;;34.87;25.70;99761.03;4859928;29;20037;-83
2022/07/29 08:34:54;;;;;;;2.20;1.55;;;;;;;34.44;30.05;99761.34;4860142;29;20516;-84
2022/07/29 08:37:20;;;;;;;1.85;1.60;;;;;;;35.00;24.89;99746.72;4860018;29;20052;-87
2022/07/29 08:39:45;;;;;;;2.33;1.58;;;;;;;35.14;24.25;99738.59;4860063;29;20095;-85
2022/07/29 08:42:11;;;;;;;5.72;3.08;;;;;;;34.81;24.24;99732.44;4859038;29;20473;-84
2022/07/29 08:44:37;;;;;;;2.25;1.40;;;;;;;35.10;23.73;99730.91;4859952;29;20086;-82
2022/07/29 08:47:03;;;;;;;1.75;1.05;;;;;;;35.26;22.20;99740.94;4859802;29;20049;-83
2022/07/29 08:49:28;;;;;;;1.92;1.40;;;;;;;35.07;23.53;99743.09;4860131;29;20045;-87
2022/07/29 08:51:57;;;;;;;4.57;1.83;;;;;;;35.14;25.36;99715.78;4859740;29;20116;-87
2022/07/29 08:54:23;;;;;;;1.92;1.42;;;;;;;35.11;24.05;99719.78;4859508;29;20060;-85
2022/07/29 08:56:50;;;;;;;3.90;1.70;;;;;;;35.23;23.60;99700.16;4859001;29;20113;-85
2022/07/29 08:59:20;;;;;;;2.10;1.40;;;;;;;35.59;25.49;99705.00;4859348;29;20090;-84
2022/07/29 09:01:48;;;;;;;3.13;1.58;;;;;;;35.70;25.37;99721.03;4859665;29;20089;-86
2022/07/29 09:04:15;;;;;;;2.70;1.60;;;;;;;35.33;24.99;99717.25;4859101;29;20040;-85
2022/07/29 09:06:47;;;;;;;1.67;1.20;;;;;;;35.15;25.28;99682.72;4859173;29;20481;-85
2022/07/29 09:09:13;;;;;;;1.58;1.40;;;;;;;34.75;24.93;99717.56;4859789;29;20067;-85
2022/07/29 09:11:39;;;;;;;8.73;2.20;;;;;;;34.90;25.79;99714.94;4858824;29;20041;-86
2022/07/29 09:14:05;;;;;;;2.42;1.70;;;;;;;35.29;26.13;99707.69;4858710;29;20057;-87
2022/07/29 09:17:06;;;;;;;2.42;1.33;;;;;;;35.53;24.10;99708.50;4859036;29;20068;-86
2022/07/29 09:19:37;;;;;;;4.07;2.80;;;;;;;35.47;25.97;99699.97;4804449;29;20526;-87
2022/07/29 09:22:09;;;;;;;2.50;1.40;;;;;;;35.78;24.06;99712.75;4847792;29;20037;-86
2022/07/29 09:24:34;;;;;;;2.03;1.33;;;;;;;35.29;25.07;99710.41;4859129;29;20124;-83
2022/07/29 09:27:00;;;;;;;1.65;1.05;;;;;;;34.34;25.23;99673.09;4858746;29;20141;-84
2022/07/29 09:29:27;;;;;;;5.70;2.53;;;;;;;34.75;26.08;99695.66;4858832;29;20846;-85
2022/07/29 09:31:54;;;;;;;1.98;1.48;;;;;;;34.76;25.13;99699.28;4859119;29;20036;-85
2022/07/29 09:34:25;;;;;;;3.47;1.75;;;;;;;34.85;24.71;99705.53;4858190;29;20584;-85
2022/07/29 09:36:52;;;;;;;3.17;1.58;;;;;;;34.38;23.83;99656.13;4858290;29;20057;-84
2022/07/29 09:39:45;;;;;;;4.80;1.88;;;;;;;34.44;24.92;99692.91;4858944;29;20086;-84
2022/07/29 09:42:11;;;;;;;3.25;1.33;;;;;;;35.18;25.00;99686.16;4858704;29;20040;-81
2022/07/29 09:44:45;;;;;;;3.22;1.45;;;;;;;35.42;23.27;99663.19;4858865;29;20048;-83
2022/07/29 09:47:11;;;;;;;3.53;1.83;;;;;;;35.05;24.61;99642.91;4858776;29;20038;-83
2022/07/29 09:49:57;;;;;;;7.28;2.78;;;;;;;35.39;26.22;99647.97;4858679;29;20038;-82
2022/07/29 09:52:23;;;;;;;2.05;1.30;;;;;;;35.21;24.79;99667.44;4859193;29;20033;-82
2022/07/29 09:54:50;;;;;;;3.15;1.55;;;;;;;34.94;24.51;99658.75;4858826;29;20048;-81
2022/07/29 09:57:28;;;;;;;2.17;1.50;;;;;;;34.91;23.38;99656.38;4858841;29;20041;-82
2022/07/29 09:59:58;;;;;;;2.20;1.40;;;;;;;35.30;23.26;99654.56;4858876;29;20178;-82
2022/07/29 10:02:29;;;;;;;2.85;1.63;;;;;;;35.07;24.25;99657.28;4858566;29;20088;-85
2022/07/29 10:04:55;;;;;;;7.32;3.47;;;;;;;35.28;24.24;99675.81;4859068;29;20084;-82
2022/07/29 10:07:21;;;;;;;1.77;1.15;;;;;;;35.42;25.54;99639.38;4872495;29;20128;-82
2022/07/29 10:09:56;;;;;;;1.55;1.30;;;;;;;35.62;25.96;99649.78;4857969;29;20037;-83
2022/07/29 10:12:23;;;;;;;1.80;1.00;;;;;;;34.97;23.58;99658.38;4858469;29;20121;-82
2022/07/29 10:14:49;;;;;;;2.22;1.55;;;;;;;34.84;24.19;99665.50;4857545;29;20469;-82
2022/07/29 10:17:16;;;;;;;2.00;1.23;;;;;;;34.78;24.58;99661.59;4858181;29;20037;-81
2022/07/29 10:19:42;;;;;;;1.85;1.27;;;;;;;35.05;27.18;99657.47;4872566;29;20041;-80
2022/07/29 10:22:10;;;;;;;6.47;2.28;;;;;;;35.68;24.52;99666.38;4871853;29;20550;-80
2022/07/29 10:24:37;;;;;;;2.10;1.58;;;;;;;35.89;25.49;99644.75;4858657;29;20037;-80
2022/07/29 10:27:06;;;;;;;2.67;1.40;;;;;;;35.69;24.85;99634.28;4858533;29;20036;-80
2022/07/29 10:29:32;;;;;;;2.58;1.38;;;;;;;34.78;25.26;99646.00;4858304;29;20040;-82
2022/07/29 10:32:16;;;;;;;6.32;1.52;;;;;;;35.48;26.10;99641.38;4858018;29;20029;-84
2022/07/29 10:35:01;;;;;;;1.75;1.33;;;;;;;36.09;24.68;99634.06;4857874;29;20081;-86
2022/07/29 10:37:46;;;;;;;3.08;1.33;;;;;;;35.90;24.32;99621.75;4857905;29;20030;-81
2022/07/29 10:43:22;;;;;;;1.80;1.10;;;;;;;35.20;25.07;99643.81;4857898;29;20041;-81
2022/07/29 10:45:49;;;;;;;2.47;1.40;;;;;;;34.69;26.29;99635.25;4857917;29;20029;-83
2022/07/29 10:48:15;;;;;;;1.85;1.35;;;;;;;35.00;25.93;99612.47;4857841;29;20036;-80
2022/07/29 10:51:02;;;;;;;2.45;1.70;;;;;;;35.40;25.40;99624.97;4857844;29;20042;-82
2022/07/29 10:53:51;;;;;;;1.15;0.95;;;;;;;35.50;26.45;99625.56;4858629;29;20037;-82
2022/07/29 10:56:27;;;;;;;1.67;1.40;;;;;;;35.62;25.55;99617.75;4858568;29;20034;-81
2022/07/29 10:59:20;;;;;;;1.73;1.35;;;;;;;35.73;25.46;99618.31;4858198;29;20037;-82
2022/07/29 11:01:50;;;;;;;2.10;1.42;;;;;;;36.10;24.96;99611.91;4857999;29;20029;-82
2022/07/29 11:04:36;;;;;;;2.45;1.40;;;;;;;36.42;24.10;99598.78;4857064;29;20128;-82
2022/07/29 11:07:05;;;;;;;2.47;1.50;;;;;;;35.76;25.24;99613.34;4857681;29;20042;-82
2022/07/29 11:09:30;;;;;;;3.13;1.83;;;;;;;35.27;24.79;99608.34;4857470;29;20052;-81
2022/07/29 11:11:57;;;;;;;3.00;1.98;;;;;;;34.92;24.99;99575.03;4858341;29;20037;-81
2022/07/29 11:14:51;;;;;;;6.88;1.92;;;;;;;35.24;25.17;99597.72;4857350;29;20056;-81
2022/07/29 11:17:17;;;;;;;4.38;1.67;;;;;;;34.92;25.41;99588.72;4857092;29;20046;-81
2022/07/29 11:19:44;;;;;;;1.88;1.40;;;;;;;34.92;25.38;99597.78;4857931;29;20044;-81
2022/07/29 11:22:10;;;;;;;2.30;1.25;;;;;;;34.98;24.83;99590.72;4858405;29;20034;-81
2022/07/29 11:24:36;;;;;;;1.73;1.20;;;;;;;34.90;24.72;99588.06;4858220;29;20097;-82
2022/07/29 11:27:17;;;;;;;3.00;1.88;;;;;;;34.76;24.87;99565.91;4860970;29;20033;-83
2022/07/29 11:30:01;;;;;;;3.17;1.50;;;;;;;34.83;25.06;99593.41;4861426;29;20489;-81
2022/07/29 11:32:37;;;;;;;2.10;1.15;;;;;;;35.09;24.63;99573.84;4861677;29;20033;-81
2022/07/29 11:35:18;;;;;;;2.15;1.50;;;;;;;34.64;25.33;99586.50;4860615;29;20124;-82
2022/07/29 11:37:44;;;;;;;2.03;1.20;;;;;;;34.36;25.60;99542.38;4861419;29;20034;-82
2022/07/29 11:40:12;;;;;;;2.15;1.80;;;;;;;34.72;25.57;99545.34;4855450;29;20037;-82
2022/07/29 11:42:43;;;;;;;1.88;1.50;;;;;;;34.86;25.10;99573.03;4859965;29;20037;-82
2022/07/29 11:45:45;;;;;;;5.53;1.70;;;;;;;34.89;25.08;99578.13;4861080;29;20454;-81
2022/07/29 11:48:16;;;;;;;1.60;1.30;;;;;;;34.57;24.08;99572.69;4845814;29;20124;-82